Glyndon, Minnesota
Current Conditions -  °F | °C
As of 3:12 AM on Monday 22 Dec 2014 (Local Time) from KJKJ Reporting Station
Haze Haze  
Wind Chill: 30°   Ceiling: 700
Heat Index: 37°   Visibility: 4mi
Dew Point: 37°   Wind: 12mph
Humidity: 100%   Direction: 140°SE
Pressure: 29.52"   Gusts: NA
Location:  46.88°N, 96.58°W
Report Text: KJKJ 220912Z AUTO 14010KT 4SM BR OVC007 03/03 A2952 RMK AO2
Loading
Personal Weather Stations






























Interactive Weather Map New forecast layout! Learn more

10-Day Weather Forecast

Advertisements
Track Severe Weather on mobile